createdAt,value
2023-02-01T00:00:27.269Z,98145.65
2023-02-01T00:03:45.554Z,98136.98
2023-02-01T00:10:19.859Z,98132.82
2023-02-01T00:13:39.748Z,98140.14
2023-02-01T00:16:53.612Z,98145.91
2023-02-01T00:20:09.922Z,98137.21
2023-02-01T00:26:46.442Z,98138.05
2023-02-01T00:30:04.240Z,98136.40
2023-02-01T00:33:21.945Z,98139.75
2023-02-01T00:36:38.204Z,98127.86
2023-02-01T00:39:59.459Z,98127.86
2023-02-01T00:43:15.685Z,98123.31
2023-02-01T00:46:32.295Z,98119.85
2023-02-01T00:49:50.138Z,98124.50
2023-02-01T00:53:06.573Z,98123.00
2023-02-01T00:56:23.372Z,98125.09
2023-02-01T00:59:40.875Z,98110.75
2023-02-01T01:02:57.903Z,98109.38
2023-02-01T01:09:29.607Z,98123.74
2023-02-01T01:12:45.876Z,98133.67
2023-02-01T01:16:04.303Z,98121.43
2023-02-01T01:19:20.531Z,98127.17
2023-02-01T01:25:52.712Z,98139.40
2023-02-01T01:29:09.536Z,98144.20
2023-02-01T01:32:25.894Z,98143.90
2023-02-01T01:35:42.557Z,98137.27
2023-02-01T01:38:59.081Z,98144.97
2023-02-01T01:42:18.427Z,98153.79
2023-02-01T01:45:39.097Z,98165.23
2023-02-01T01:48:57.974Z,98170.13
2023-02-01T01:52:14.629Z,98163.24
2023-02-01T01:55:33.333Z,98157.34
2023-02-01T01:58:50.414Z,98122.13
2023-02-01T02:02:06.744Z,98138.88
2023-02-01T02:05:26.589Z,98143.72
2023-02-01T02:08:42.850Z,98140.11
2023-02-01T02:11:59.194Z,98143.41
2023-02-01T02:15:18.352Z,98147.53
2023-02-01T02:18:39.845Z,98135.03
2023-02-01T02:22:11.679Z,98148.95
2023-02-01T02:26:02.243Z,98166.55
2023-02-01T02:30:03.677Z,98180.59
2023-02-01T02:33:55.775Z,98184.72
2023-02-01T02:37:18.772Z,98176.17
2023-02-01T02:40:40.048Z,98175.13
2023-02-01T02:44:14.361Z,98174.82
2023-02-01T02:47:36.390Z,98185.14
2023-02-01T02:51:10.773Z,98188.05
2023-02-01T02:54:45.310Z,98197.85
2023-02-01T02:58:18.211Z,98205.83
2023-02-01T03:01:48.706Z,98215.34
2023-02-01T03:05:05.274Z,98213.38
2023-02-01T03:08:26.527Z,98205.83
2023-02-01T03:12:02.000Z,98210.77
2023-02-01T03:15:21.766Z,98207.21
2023-02-01T03:18:45.639Z,98204.87
2023-02-01T03:22:05.911Z,98219.33
2023-02-01T03:25:30.235Z,98221.55
2023-02-01T03:28:52.476Z,98225.52
2023-02-01T03:32:10.743Z,98239.72
2023-02-01T03:35:30.485Z,98238.63
2023-02-01T03:38:52.169Z,98249.91
2023-02-01T03:42:12.575Z,98247.30
2023-02-01T03:45:33.215Z,98245.50
2023-02-01T03:48:50.528Z,98238.49
2023-02-01T03:55:26.418Z,98259.30
2023-02-01T03:58:43.496Z,98256.42
2023-02-01T04:01:59.798Z,98256.42
2023-02-01T04:05:18.549Z,98263.02
2023-02-01T04:08:51.371Z,98252.96
2023-02-01T04:12:07.441Z,98251.85
2023-02-01T04:15:23.889Z,98257.92
2023-02-01T04:18:39.877Z,98256.94
2023-02-01T04:21:56.115Z,98254.91
2023-02-01T04:25:14.310Z,98249.80
2023-02-01T04:28:30.580Z,98253.52
2023-02-01T04:31:48.142Z,98253.66
2023-02-01T04:35:04.535Z,98259.44
2023-02-01T04:38:20.691Z,98261.36
2023-02-01T04:41:36.785Z,98255.17
2023-02-01T04:44:52.819Z,98263.17
2023-02-01T04:48:11.021Z,98269.65
2023-02-01T04:51:27.426Z,98266.05
2023-02-01T04:54:43.860Z,98273.38
2023-02-01T04:58:00.051Z,98267.99
2023-02-01T05:01:17.022Z,98273.38
2023-02-01T05:04:33.509Z,98275.98
2023-02-01T05:11:05.205Z,98279.67
2023-02-01T05:14:21.821Z,98275.00
2023-02-01T05:17:38.075Z,98280.08
2023-02-01T05:20:54.120Z,98276.51
2023-02-01T05:24:18.591Z,98273.48
2023-02-01T05:27:38.885Z,98262.21
2023-02-01T05:30:55.323Z,98265.38
2023-02-01T05:34:13.089Z,98263.43
2023-02-01T05:37:29.487Z,98260.55
2023-02-01T05:40:49.908Z,98267.84
2023-02-01T05:44:06.855Z,98263.87
2023-02-01T05:47:25.403Z,98271.27
2023-02-01T05:50:41.312Z,98259.05
2023-02-01T05:53:59.669Z,98264.13
2023-02-01T05:57:16.071Z,98259.19
2023-02-01T06:00:35.579Z,98248.73
2023-02-01T06:03:51.639Z,98243.06
2023-02-01T06:10:24.960Z,98245.00
2023-02-01T06:13:43.865Z,98242.39
2023-02-01T06:17:00.250Z,98251.59
2023-02-01T06:20:23.062Z,98242.79
2023-02-01T06:26:57.226Z,98236.16
2023-02-01T06:30:16.160Z,98243.05
2023-02-01T06:33:32.700Z,98243.98
2023-02-01T06:36:48.880Z,98242.06
2023-02-01T06:40:05.377Z,98254.59
2023-02-01T06:43:21.582Z,98248.91
2023-02-01T06:46:37.879Z,98249.19
2023-02-01T06:49:55.125Z,98251.78
2023-02-01T06:56:27.276Z,98248.44
2023-02-01T06:59:43.608Z,98250.76
2023-02-01T07:03:00.323Z,98262.16
2023-02-01T07:06:17.988Z,98252.53
2023-02-01T07:09:34.533Z,98251.27
2023-02-01T07:12:50.862Z,98247.69
2023-02-01T07:16:09.496Z,98254.00
2023-02-01T07:19:25.900Z,98251.08
2023-02-01T07:22:42.186Z,98246.22
2023-02-01T07:26:03.563Z,98243.60
2023-02-01T07:29:19.748Z,98250.80
2023-02-01T07:32:36.311Z,98240.71
2023-02-01T07:35:55.152Z,98239.59
2023-02-01T07:39:13.869Z,98237.66
2023-02-01T07:42:30.072Z,98238.20
2023-02-01T07:45:47.398Z,98229.22
2023-02-01T07:49:04.207Z,98232.50
2023-02-01T07:57:33.131Z,98232.75
2023-02-01T08:01:03.196Z,98222.93
2023-02-01T08:04:21.631Z,98229.23
2023-02-01T08:11:11.983Z,98232.92
2023-02-01T08:14:29.338Z,98236.35
2023-02-01T08:17:47.839Z,98221.69
2023-02-01T08:21:05.462Z,98230.08
2023-02-01T08:24:25.407Z,98225.15
2023-02-01T08:27:44.989Z,98229.77
2023-02-01T08:31:02.681Z,98228.80
2023-02-01T08:34:20.835Z,98234.41
2023-02-01T08:37:37.140Z,98230.70
2023-02-01T08:40:53.757Z,98232.20
2023-02-01T08:44:10.534Z,98233.16
2023-02-01T08:47:28.262Z,98231.73
2023-02-01T08:50:44.677Z,98242.90
2023-02-01T08:54:02.764Z,98239.67
2023-02-01T08:57:19.692Z,98248.73
2023-02-01T09:00:36.638Z,98245.98
2023-02-01T09:03:53.151Z,98241.38
2023-02-01T09:07:09.603Z,98227.83
2023-02-01T09:10:35.102Z,98241.78
2023-02-01T09:13:46.868Z,98222.94
2023-02-01T09:17:03.708Z,98219.87
2023-02-01T09:20:24.375Z,98221.36
2023-02-01T09:26:56.462Z,98210.87
2023-02-01T09:30:14.864Z,98203.88
2023-02-01T09:33:31.365Z,98197.56
2023-02-01T09:36:48.836Z,98195.97
2023-02-01T09:43:40.662Z,98195.27
2023-02-01T09:46:58.038Z,98190.70
2023-02-01T09:50:24.657Z,98199.22
2023-02-01T09:53:45.545Z,98201.57
2023-02-01T09:57:05.901Z,98203.90
2023-02-01T10:00:32.788Z,98202.41
2023-02-01T10:03:49.831Z,98204.71
2023-02-01T10:07:20.381Z,98208.64
2023-02-01T10:10:38.308Z,98203.84
2023-02-01T10:14:06.601Z,98209.59
2023-02-01T10:17:32.655Z,98209.59
2023-02-01T10:20:59.627Z,98198.08
2023-02-01T10:27:35.585Z,98195.27
2023-02-01T10:30:55.007Z,98194.13
2023-02-01T10:34:17.924Z,98179.00
2023-02-01T10:42:05.204Z,98173.22
2023-02-01T10:45:28.542Z,98188.45
2023-02-01T10:48:49.950Z,98181.13
2023-02-01T10:52:12.584Z,98179.19
2023-02-01T10:55:43.603Z,98168.86
2023-02-01T10:59:02.362Z,98181.48
2023-02-01T11:02:32.865Z,98174.91
2023-02-01T11:05:57.122Z,98178.86
2023-02-01T11:09:26.189Z,98163.95
2023-02-01T11:12:45.061Z,98161.23
2023-02-01T11:16:06.535Z,98158.44
2023-02-01T11:19:26.301Z,98149.89
2023-02-01T11:22:42.612Z,98148.05
2023-02-01T11:26:05.964Z,98147.70
2023-02-01T11:29:28.698Z,98153.97
2023-02-01T11:32:47.115Z,98149.86
2023-02-01T11:36:04.815Z,98155.11
2023-02-01T11:42:38.333Z,98147.07
2023-02-01T11:46:05.425Z,98150.83
2023-02-01T11:49:34.091Z,98138.36
2023-02-01T11:58:37.077Z,98138.70
2023-02-01T12:02:18.640Z,98125.86
2023-02-01T12:05:45.968Z,98126.29
2023-02-01T12:12:26.513Z,98120.01
2023-02-01T12:16:00.258Z,98106.08
2023-02-01T12:19:49.221Z,98099.53
2023-02-01T12:23:54.548Z,98098.91
2023-02-01T12:27:24.248Z,98093.20
2023-02-01T12:31:14.797Z,98091.55
2023-02-01T12:35:14.744Z,98081.24
2023-02-01T12:38:47.418Z,98087.73
2023-02-01T12:42:15.149Z,98079.52
2023-02-01T12:45:38.250Z,98084.09
2023-02-01T12:49:02.018Z,98086.08
2023-02-01T12:52:23.763Z,98086.42
2023-02-01T12:55:48.923Z,98076.59
2023-02-01T12:59:11.966Z,98079.17
2023-02-01T13:02:36.674Z,98079.85
2023-02-01T13:06:02.515Z,98073.41
2023-02-01T13:12:40.279Z,98064.22
2023-02-01T13:16:02.908Z,98070.95
2023-02-01T13:19:26.198Z,98060.97
2023-02-01T13:22:47.778Z,98055.89
2023-02-01T13:26:05.173Z,98050.98
2023-02-01T13:29:22.702Z,98045.43
2023-02-01T13:33:54.642Z,98050.81
2023-02-01T13:36:40.168Z,98045.91
2023-02-01T13:40:10.071Z,98041.33
2023-02-01T13:43:30.613Z,98038.83
2023-02-01T13:46:53.521Z,98044.42
2023-02-01T13:50:17.362Z,98041.75
2023-02-01T13:53:39.565Z,98042.39
2023-02-01T13:56:56.009Z,98039.13
2023-02-01T14:00:37.526Z,98051.61
2023-02-01T14:03:59.107Z,98047.68
2023-02-01T14:07:27.806Z,98037.85
2023-02-01T14:11:02.001Z,98030.95
2023-02-01T14:14:51.646Z,98038.33
2023-02-01T14:18:07.933Z,98033.75
2023-02-01T14:21:31.755Z,98032.10
2023-02-01T14:24:50.927Z,98022.91
2023-02-01T14:28:08.264Z,98018.47
2023-02-01T14:31:51.783Z,98020.80
2023-02-01T14:35:15.243Z,98025.37
2023-02-01T14:38:34.013Z,98017.50
2023-02-01T14:45:21.343Z,98005.84
2023-02-01T14:48:59.611Z,98009.45
2023-02-01T14:52:23.360Z,98011.39
2023-02-01T14:59:02.846Z,98003.31
2023-02-01T15:02:33.647Z,98012.48
2023-02-01T15:05:50.851Z,98014.61
2023-02-01T15:12:33.688Z,98028.34
2023-02-01T15:15:49.991Z,98033.66
2023-02-01T15:19:23.184Z,98022.81
2023-02-01T15:22:40.608Z,98028.38
2023-02-01T15:25:57.985Z,98032.44
2023-02-01T15:29:22.403Z,98036.80
2023-02-01T15:32:47.465Z,98036.29
2023-02-01T15:36:15.509Z,98033.41
2023-02-01T15:39:36.625Z,98044.37
2023-02-01T15:43:00.176Z,98052.08
2023-02-01T15:46:25.563Z,98054.02
2023-02-01T15:49:46.073Z,98057.56
2023-02-01T15:53:04.113Z,98053.13
2023-02-01T15:56:22.407Z,98059.50
2023-02-01T15:59:46.410Z,98064.05
2023-02-01T16:03:07.963Z,98069.41
2023-02-01T16:06:41.259Z,98062.27
2023-02-01T16:13:14.014Z,98055.25
2023-02-01T16:16:30.343Z,98085.10
2023-02-01T16:19:47.071Z,98077.98
2023-02-01T16:23:05.885Z,98071.73
2023-02-01T16:26:22.742Z,98072.01
2023-02-01T16:29:43.026Z,98071.41
2023-02-01T16:32:59.369Z,98082.92
2023-02-01T16:36:18.691Z,98079.87
2023-02-01T16:39:38.225Z,98096.48
2023-02-01T16:42:58.672Z,98097.45
2023-02-01T16:46:22.376Z,98108.30
2023-02-01T16:49:39.909Z,98099.54
2023-02-01T16:52:56.626Z,98109.36
2023-02-01T16:56:23.596Z,98107.87
2023-02-01T16:59:41.354Z,98118.34
2023-02-01T17:02:58.006Z,98106.59
2023-02-01T17:06:16.848Z,98115.78
2023-02-01T17:09:34.935Z,98110.42
2023-02-01T17:12:52.476Z,98113.05
2023-02-01T17:16:12.529Z,98117.16
2023-02-01T17:19:31.335Z,98119.77
2023-02-01T17:22:47.623Z,98121.27
2023-02-01T17:29:20.827Z,98121.49
2023-02-01T17:32:37.436Z,98120.05
2023-02-01T17:35:54.377Z,98116.47
2023-02-01T17:39:11.778Z,98115.13
2023-02-01T17:42:30.169Z,98112.26
2023-02-01T17:45:53.499Z,98115.78
2023-02-01T17:49:10.425Z,98108.17
2023-02-01T17:52:29.974Z,98112.73
2023-02-01T17:59:02.587Z,98111.45
2023-02-01T18:02:29.463Z,98134.06
2023-02-01T18:05:51.896Z,98131.97
2023-02-01T18:09:09.942Z,98123.83
2023-02-01T18:15:42.959Z,98105.33
2023-02-01T18:19:02.193Z,98110.20
2023-02-01T18:22:24.960Z,98114.75
2023-02-01T18:25:42.114Z,98108.70
2023-02-01T18:28:58.837Z,98118.06
2023-02-01T18:32:17.325Z,98111.00
2023-02-01T18:35:37.368Z,98114.44
2023-02-01T18:38:55.331Z,98101.97
2023-02-01T18:42:12.819Z,98099.78
2023-02-01T18:45:41.447Z,98109.42
2023-02-01T18:48:58.496Z,98119.38
2023-02-01T18:52:15.079Z,98105.63
2023-02-01T19:02:04.929Z,98096.27
2023-02-01T19:05:23.017Z,98094.52
2023-02-01T19:08:40.262Z,98101.19
2023-02-01T19:15:18.294Z,98095.75
2023-02-01T19:18:34.900Z,98077.16
2023-02-01T19:21:51.610Z,98078.12
2023-02-01T19:28:24.194Z,98065.71
2023-02-01T19:31:41.203Z,98064.97
2023-02-01T19:34:57.844Z,98055.77
2023-02-01T19:38:16.303Z,98051.13
2023-02-01T19:44:47.967Z,98057.86
2023-02-01T19:48:07.144Z,98058.23
2023-02-01T19:51:21.462Z,98059.73
2023-02-01T19:54:38.358Z,98062.19
2023-02-01T19:57:55.007Z,98061.07
2023-02-01T20:01:13.061Z,98064.22
2023-02-01T20:04:29.963Z,98060.70
2023-02-01T20:07:46.773Z,98057.48
2023-02-01T20:11:04.457Z,98061.38
2023-02-01T20:14:22.484Z,98055.77
2023-02-01T20:17:38.819Z,98056.73
2023-02-01T20:20:56.790Z,98044.23
2023-02-01T20:24:18.473Z,98045.05
2023-02-01T20:27:36.704Z,98042.43
2023-02-01T20:30:55.240Z,98039.38
2023-02-01T20:34:12.410Z,98036.85
2023-02-01T20:37:28.984Z,98032.80
2023-02-01T20:40:48.746Z,98036.78
2023-02-01T20:44:06.307Z,98027.27
2023-02-01T20:47:22.518Z,98021.05
2023-02-01T20:50:41.802Z,98022.86
2023-02-01T20:53:59.122Z,98016.41
2023-02-01T20:57:18.218Z,98011.17
2023-02-01T21:00:34.975Z,98009.45
2023-02-01T21:03:51.581Z,97999.22
2023-02-01T21:07:08.577Z,97989.41
2023-02-01T21:10:25.059Z,97994.36
2023-02-01T21:13:47.845Z,97982.28
2023-02-01T21:17:04.287Z,97981.83
2023-02-01T21:20:23.345Z,97968.29
2023-02-01T21:23:41.677Z,97965.74
2023-02-01T21:30:16.817Z,97949.38
2023-02-01T21:33:32.870Z,97941.91
2023-02-01T21:36:49.258Z,97936.67
2023-02-01T21:40:07.569Z,97927.52
2023-02-01T21:43:24.897Z,97922.11
2023-02-01T21:46:41.999Z,97921.46
2023-02-01T21:49:58.718Z,97911.63
2023-02-01T21:53:15.893Z,97912.59
2023-02-01T21:59:50.008Z,97930.19
2023-02-01T22:03:06.338Z,97931.16
2023-02-01T22:06:32.526Z,97932.94
2023-02-01T22:09:49.788Z,97934.05
2023-02-01T22:13:07.674Z,97928.13
2023-02-01T22:16:24.321Z,97922.38
2023-02-01T22:19:40.873Z,97912.34
2023-02-01T22:22:59.987Z,97904.30
2023-02-01T22:29:32.010Z,97894.88
2023-02-01T22:32:47.870Z,97890.16
2023-02-01T22:36:04.112Z,97886.51
2023-02-01T22:39:20.554Z,97878.52
2023-02-01T22:42:36.795Z,97878.66
2023-02-01T22:45:52.745Z,97882.37
2023-02-01T22:49:10.146Z,97879.39
2023-02-01T22:52:26.201Z,97889.54
2023-02-01T23:00:35.257Z,97875.66
2023-02-01T23:03:51.981Z,97873.88
2023-02-01T23:07:08.399Z,97872.52
2023-02-01T23:10:25.876Z,97875.97
2023-02-01T23:16:58.912Z,97869.97
2023-02-01T23:20:21.634Z,97870.17
2023-02-01T23:23:37.798Z,97870.53
2023-02-01T23:26:53.898Z,97867.30
2023-02-01T23:30:10.840Z,97858.84
2023-02-01T23:33:29.835Z,97852.63
2023-02-01T23:36:46.033Z,97854.63
2023-02-01T23:40:02.284Z,97866.14
2023-02-01T23:43:32.674Z,97858.63
2023-02-01T23:46:52.330Z,97866.20
2023-02-01T23:50:08.502Z,97860.12
2023-02-01T23:53:24.637Z,97853.58
2023-02-01T23:56:43.417Z,97859.33
